Mc Alister, New Mexico
Current Conditions -  °F | °C
As of 6:53 AM on Thursday 30 Oct 2014 (Local Time) from KTCC Reporting Station
Clear Clear  
Wind Chill: 39°   Ceiling: Unl
Heat Index: 44°   Visibility: 10mi
Dew Point: 29°   Wind: 9mph
Humidity: 55%   Direction: 330°NNW
Pressure: 30.2"   Gusts: NA
Location:  34.7422°N, 103.654°W
Report Text: KTCC 301253Z AUTO 33008KT 10SM CLR 07/M02 A3020 RMK AO2 SLP202 T00671017
Loading
Personal Weather Stations






























Interactive Weather Map
Tropical Storm Tracking
New forecast layout! Learn more

10-Day Weather Forecast

Advertisements
Track Severe Weather on mobile